sensor_id;sensor_type;location;lat;lon;timestamp;pressure;altitude;pressure_sealevel;temperature;humidity
9110;BME280;4590;51.462;6.692;2023-04-05T00:00:58;102204.25;;;7.22;40.74
9110;BME280;4590;51.462;6.692;2023-04-05T00:03:23;102197.72;;;7.23;41.29
9110;BME280;4590;51.462;6.692;2023-04-05T00:05:49;102204.00;;;7.24;40.84
9110;BME280;4590;51.462;6.692;2023-04-05T00:08:15;102201.53;;;7.22;40.85
9110;BME280;4590;51.462;6.692;2023-04-05T00:10:48;102197.13;;;7.21;41.25
9110;BME280;4590;51.462;6.692;2023-04-05T00:13:14;102196.34;;;7.09;42.50
9110;BME280;4590;51.462;6.692;2023-04-05T00:15:39;102201.66;;;7.16;41.07
9110;BME280;4590;51.462;6.692;2023-04-05T00:18:05;102203.81;;;7.14;41.10
9110;BME280;4590;51.462;6.692;2023-04-05T00:20:30;102196.69;;;7.13;41.39
9110;BME280;4590;51.462;6.692;2023-04-05T00:22:55;102195.28;;;7.10;41.10
9110;BME280;4590;51.462;6.692;2023-04-05T00:25:21;102197.94;;;7.05;41.43
9110;BME280;4590;51.462;6.692;2023-04-05T00:27:46;102193.19;;;7.00;41.18
9110;BME280;4590;51.462;6.692;2023-04-05T00:30:12;102203.56;;;6.98;42.02
9110;BME280;4590;51.462;6.692;2023-04-05T00:35:06;102198.81;;;6.94;42.27
9110;BME280;4590;51.462;6.692;2023-04-05T00:37:32;102195.53;;;6.92;41.89
9110;BME280;4590;51.462;6.692;2023-04-05T00:39:57;102188.88;;;6.88;42.75
9110;BME280;4590;51.462;6.692;2023-04-05T00:42:22;102188.03;;;6.87;42.70
9110;BME280;4590;51.462;6.692;2023-04-05T00:44:47;102193.50;;;6.87;42.33
9110;BME280;4590;51.462;6.692;2023-04-05T00:47:13;102191.63;;;6.88;42.73
9110;BME280;4590;51.462;6.692;2023-04-05T00:49:39;102189.72;;;6.88;43.05
9110;BME280;4590;51.462;6.692;2023-04-05T00:52:04;102184.22;;;6.88;43.24
9110;BME280;4590;51.462;6.692;2023-04-05T00:54:30;102191.03;;;6.86;43.59
9110;BME280;4590;51.462;6.692;2023-04-05T00:56:58;102191.25;;;6.84;43.04
9110;BME280;4590;51.462;6.692;2023-04-05T00:59:26;102182.72;;;6.81;43.64
9110;BME280;4590;51.462;6.692;2023-04-05T01:02:10;102187.53;;;6.74;43.86
9110;BME280;4590;51.462;6.692;2023-04-05T01:04:40;102168.38;;;6.74;44.15
9110;BME280;4590;51.462;6.692;2023-04-05T01:08:06;102179.22;;;6.68;43.94
9110;BME280;4590;51.462;6.692;2023-04-05T01:10:12;102172.09;;;6.67;44.41
9110;BME280;4590;51.462;6.692;2023-04-05T01:12:42;102182.19;;;6.67;43.95
9110;BME280;4590;51.462;6.692;2023-04-05T01:15:08;102169.00;;;6.64;44.50
9110;BME280;4590;51.462;6.692;2023-04-05T01:17:35;102169.75;;;6.59;44.57
9110;BME280;4590;51.462;6.692;2023-04-05T01:20:02;102163.69;;;6.57;44.53
9110;BME280;4590;51.462;6.692;2023-04-05T01:23:14;102161.34;;;6.49;44.93
9110;BME280;4590;51.462;6.692;2023-04-05T01:26:03;102158.78;;;6.43;44.75
9110;BME280;4590;51.462;6.692;2023-04-05T01:31:40;102168.53;;;6.39;45.54
9110;BME280;4590;51.462;6.692;2023-04-05T01:36:40;102154.50;;;6.35;45.06
9110;BME280;4590;51.462;6.692;2023-04-05T01:39:08;102160.69;;;6.30;44.99
9110;BME280;4590;51.462;6.692;2023-04-05T01:41:38;102158.72;;;6.26;45.35
9110;BME280;4590;51.462;6.692;2023-04-05T01:44:04;102154.81;;;6.22;45.60
9110;BME280;4590;51.462;6.692;2023-04-05T01:46:29;102149.75;;;6.14;45.48
9110;BME280;4590;51.462;6.692;2023-04-05T01:48:55;102159.38;;;6.05;46.03
9110;BME280;4590;51.462;6.692;2023-04-05T01:51:20;102150.81;;;6.01;45.54
9110;BME280;4590;51.462;6.692;2023-04-05T01:53:45;102155.84;;;5.92;45.98
9110;BME280;4590;51.462;6.692;2023-04-05T01:56:11;102155.69;;;5.87;46.26
9110;BME280;4590;51.462;6.692;2023-04-05T01:58:36;102164.94;;;5.86;46.21
9110;BME280;4590;51.462;6.692;2023-04-05T02:01:02;102149.03;;;5.83;46.55
9110;BME280;4590;51.462;6.692;2023-04-05T02:03:28;102143.09;;;5.86;46.23
9110;BME280;4590;51.462;6.692;2023-04-05T02:05:53;102140.75;;;5.90;46.82
9110;BME280;4590;51.462;6.692;2023-04-05T02:08:18;102142.66;;;5.89;46.08
9110;BME280;4590;51.462;6.692;2023-04-05T02:10:44;102145.84;;;5.86;46.87
9110;BME280;4590;51.462;6.692;2023-04-05T02:13:09;102137.63;;;5.86;46.89
9110;BME280;4590;51.462;6.692;2023-04-05T02:15:36;102138.47;;;5.87;47.37
9110;BME280;4590;51.462;6.692;2023-04-05T02:18:01;102141.19;;;5.87;47.62
9110;BME280;4590;51.462;6.692;2023-04-05T02:20:28;102140.38;;;5.86;47.18
9110;BME280;4590;51.462;6.692;2023-04-05T02:22:53;102137.63;;;5.86;47.33
9110;BME280;4590;51.462;6.692;2023-04-05T02:25:19;102130.75;;;5.84;47.11
9110;BME280;4590;51.462;6.692;2023-04-05T02:27:44;102130.19;;;5.82;47.02
9110;BME280;4590;51.462;6.692;2023-04-05T02:30:10;102142.41;;;5.79;47.21
9110;BME280;4590;51.462;6.692;2023-04-05T02:32:38;102132.56;;;5.78;47.54
9110;BME280;4590;51.462;6.692;2023-04-05T02:35:03;102134.09;;;5.74;47.47
9110;BME280;4590;51.462;6.692;2023-04-05T02:37:29;102136.25;;;5.72;47.66
9110;BME280;4590;51.462;6.692;2023-04-05T02:39:54;102132.91;;;5.70;47.61
9110;BME280;4590;51.462;6.692;2023-04-05T02:42:20;102137.78;;;5.68;47.99
9110;BME280;4590;51.462;6.692;2023-04-05T02:44:45;102138.84;;;5.67;47.60
9110;BME280;4590;51.462;6.692;2023-04-05T02:47:10;102136.03;;;5.62;47.78
9110;BME280;4590;51.462;6.692;2023-04-05T02:49:35;102139.22;;;5.59;47.90
9110;BME280;4590;51.462;6.692;2023-04-05T02:52:01;102136.97;;;5.56;47.85
9110;BME280;4590;51.462;6.692;2023-04-05T02:54:26;102144.34;;;5.55;48.15
9110;BME280;4590;51.462;6.692;2023-04-05T02:56:51;102140.78;;;5.55;47.79
9110;BME280;4590;51.462;6.692;2023-04-05T02:59:18;102125.47;;;5.54;48.35
9110;BME280;4590;51.462;6.692;2023-04-05T03:01:44;102131.41;;;5.51;47.82
9110;BME280;4590;51.462;6.692;2023-04-05T03:04:10;102131.66;;;5.49;48.49
9110;BME280;4590;51.462;6.692;2023-04-05T03:06:36;102131.28;;;5.46;48.18
9110;BME280;4590;51.462;6.692;2023-04-05T03:09:02;102135.09;;;5.45;48.35
9110;BME280;4590;51.462;6.692;2023-04-05T03:11:28;102136.16;;;5.44;48.73
9110;BME280;4590;51.462;6.692;2023-04-05T03:13:53;102126.31;;;5.43;48.78
9110;BME280;4590;51.462;6.692;2023-04-05T03:16:19;102126.53;;;5.41;48.33
9110;BME280;4590;51.462;6.692;2023-04-05T03:18:44;102119.66;;;5.39;48.90
9110;BME280;4590;51.462;6.692;2023-04-05T03:21:10;102116.59;;;5.35;48.47
9110;BME280;4590;51.462;6.692;2023-04-05T03:23:35;102123.34;;;5.33;48.90
9110;BME280;4590;51.462;6.692;2023-04-05T03:26:01;102125.72;;;5.29;49.14
9110;BME280;4590;51.462;6.692;2023-04-05T03:28:28;102122.63;;;5.25;48.55
9110;BME280;4590;51.462;6.692;2023-04-05T03:30:54;102125.50;;;5.19;48.54
9110;BME280;4590;51.462;6.692;2023-04-05T03:33:20;102125.38;;;5.14;48.65
9110;BME280;4590;51.462;6.692;2023-04-05T03:35:46;102125.00;;;5.10;48.77
9110;BME280;4590;51.462;6.692;2023-04-05T03:38:11;102127.97;;;5.09;48.88
9110;BME280;4590;51.462;6.692;2023-04-05T03:40:37;102115.63;;;5.06;48.66
9110;BME280;4590;51.462;6.692;2023-04-05T03:43:02;102118.00;;;5.03;48.97
9110;BME280;4590;51.462;6.692;2023-04-05T03:45:27;102114.69;;;5.01;48.84
9110;BME280;4590;51.462;6.692;2023-04-05T03:47:56;102109.47;;;4.99;48.94
9110;BME280;4590;51.462;6.692;2023-04-05T03:50:22;102119.53;;;4.99;49.04
9110;BME280;4590;51.462;6.692;2023-04-05T03:52:47;102119.53;;;4.99;49.23
9110;BME280;4590;51.462;6.692;2023-04-05T03:55:13;102114.91;;;4.99;48.86
9110;BME280;4590;51.462;6.692;2023-04-05T03:57:41;102117.19;;;5.02;49.47
9110;BME280;4590;51.462;6.692;2023-04-05T04:00:06;102121.22;;;5.00;49.12
9110;BME280;4590;51.462;6.692;2023-04-05T04:02:43;102120.59;;;4.98;49.34
9110;BME280;4590;51.462;6.692;2023-04-05T04:05:09;102115.38;;;4.96;49.50
9110;BME280;4590;51.462;6.692;2023-04-05T04:07:34;102102.81;;;4.95;49.69
9110;BME280;4590;51.462;6.692;2023-04-05T04:09:59;102108.88;;;4.97;49.62
9110;BME280;4590;51.462;6.692;2023-04-05T04:12:25;102111.81;;;4.96;49.55
9110;BME280;4590;51.462;6.692;2023-04-05T04:14:51;102109.94;;;4.96;49.99
9110;BME280;4590;51.462;6.692;2023-04-05T04:17:33;102112.88;;;4.94;50.07
9110;BME280;4590;51.462;6.692;2023-04-05T04:19:59;102110.75;;;4.97;49.93
9110;BME280;4590;51.462;6.692;2023-04-05T04:22:25;102109.94;;;4.96;49.95
9110;BME280;4590;51.462;6.692;2023-04-05T04:24:57;102103.63;;;4.96;49.38
9110;BME280;4590;51.462;6.692;2023-04-05T04:27:22;102109.31;;;4.94;49.79
9110;BME280;4590;51.462;6.692;2023-04-05T04:29:47;102113.13;;;4.93;50.04
9110;BME280;4590;51.462;6.692;2023-04-05T04:32:14;102115.84;;;4.93;50.06
9110;BME280;4590;51.462;6.692;2023-04-05T04:34:40;102108.50;;;4.93;50.23
9110;BME280;4590;51.462;6.692;2023-04-05T04:37:11;102114.78;;;4.94;50.09
9110;BME280;4590;51.462;6.692;2023-04-05T04:39:41;102108.72;;;4.92;50.20
9110;BME280;4590;51.462;6.692;2023-04-05T04:42:09;102109.78;;;4.91;50.22
9110;BME280;4590;51.462;6.692;2023-04-05T04:44:34;102116.66;;;4.82;50.33
9110;BME280;4590;51.462;6.692;2023-04-05T04:47:00;102115.31;;;4.73;50.32
9110;BME280;4590;51.462;6.692;2023-04-05T04:49:25;102109.63;;;4.63;50.40
9110;BME280;4590;51.462;6.692;2023-04-05T04:51:52;102120.75;;;4.49;52.24
9110;BME280;4590;51.462;6.692;2023-04-05T04:54:17;102119.00;;;4.55;50.78
9110;BME280;4590;51.462;6.692;2023-04-05T04:56:45;102115.19;;;4.56;50.69
9110;BME280;4590;51.462;6.692;2023-04-05T04:59:10;102122.78;;;4.54;50.73
9110;BME280;4590;51.462;6.692;2023-04-05T05:01:36;102119.91;;;4.49;50.89
9110;BME280;4590;51.462;6.692;2023-04-05T05:04:04;102120.38;;;4.46;51.30
9110;BME280;4590;51.462;6.692;2023-04-05T05:06:30;102112.41;;;4.44;51.44
9110;BME280;4590;51.462;6.692;2023-04-05T05:08:55;102119.53;;;4.45;51.48
9110;BME280;4590;51.462;6.692;2023-04-05T05:11:20;102115.75;;;4.46;51.48
9110;BME280;4590;51.462;6.692;2023-04-05T05:13:46;102110.28;;;4.46;51.77
9110;BME280;4590;51.462;6.692;2023-04-05T05:16:11;102116.13;;;4.50;51.29
9110;BME280;4590;51.462;6.692;2023-04-05T05:18:37;102118.63;;;4.51;51.62
9110;BME280;4590;51.462;6.692;2023-04-05T05:21:10;102114.69;;;4.47;51.48
9110;BME280;4590;51.462;6.692;2023-04-05T05:23:35;102108.63;;;4.45;51.86
9110;BME280;4590;51.462;6.692;2023-04-05T05:26:00;102110.28;;;4.46;52.07
9110;BME280;4590;51.462;6.692;2023-04-05T05:28:26;102105.44;;;4.48;51.58
9110;BME280;4590;51.462;6.692;2023-04-05T05:30:51;102110.66;;;4.50;51.81
9110;BME280;4590;51.462;6.692;2023-04-05T05:33:16;102110.06;;;4.48;51.94
9110;BME280;4590;51.462;6.692;2023-04-05T05:38:27;102119.06;;;4.48;52.19
9110;BME280;4590;51.462;6.692;2023-04-05T05:40:56;102108.16;;;4.48;51.93
9110;BME280;4590;51.462;6.692;2023-04-05T05:43:22;102100.59;;;4.50;51.81
9110;BME280;4590;51.462;6.692;2023-04-05T05:45:47;102107.09;;;4.49;52.20
9110;BME280;4590;51.462;6.692;2023-04-05T05:48:12;102109.00;;;4.49;51.78
9110;BME280;4590;51.462;6.692;2023-04-05T05:50:38;102108.78;;;4.50;52.36
9110;BME280;4590;51.462;6.692;2023-04-05T05:53:03;102113.63;;;4.48;52.51
9110;BME280;4590;51.462;6.692;2023-04-05T05:55:29;102111.72;;;4.49;52.19
9110;BME280;4590;51.462;6.692;2023-04-05T05:57:54;102116.94;;;4.50;52.18
9110;BME280;4590;51.462;6.692;2023-04-05T06:00:20;102111.28;;;4.52;52.57
9110;BME280;4590;51.462;6.692;2023-04-05T06:02:45;102114.94;;;4.57;52.19
9110;BME280;4590;51.462;6.692;2023-04-05T06:05:11;102121.81;;;4.60;52.59
9110;BME280;4590;51.462;6.692;2023-04-05T06:07:37;102123.63;;;4.66;51.99
9110;BME280;4590;51.462;6.692;2023-04-05T06:10:05;102122.09;;;4.70;52.32
9110;BME280;4590;51.462;6.692;2023-04-05T06:12:31;102115.31;;;4.73;52.44
9110;BME280;4590;51.462;6.692;2023-04-05T06:14:56;102108.59;;;4.75;52.36
9110;BME280;4590;51.462;6.692;2023-04-05T06:17:22;102112.75;;;4.78;52.51
9110;BME280;4590;51.462;6.692;2023-04-05T06:19:47;102115.59;;;4.83;52.34
9110;BME280;4590;51.462;6.692;2023-04-05T06:22:12;102112.97;;;4.88;52.37
9110;BME280;4590;51.462;6.692;2023-04-05T06:24:37;102114.19;;;4.92;52.15
9110;BME280;4590;51.462;6.692;2023-04-05T06:27:03;102112.66;;;4.96;52.50
9110;BME280;4590;51.462;6.692;2023-04-05T06:29:28;102110.66;;;5.03;52.31
9110;BME280;4590;51.462;6.692;2023-04-05T06:31:55;102114.44;;;5.02;53.70
9110;BME280;4590;51.462;6.692;2023-04-05T06:34:20;102115.66;;;5.18;52.17
9110;BME280;4590;51.462;6.692;2023-04-05T06:36:45;102114.44;;;5.25;52.21
9110;BME280;4590;51.462;6.692;2023-04-05T06:39:11;102106.75;;;5.34;51.75
9110;BME280;4590;51.462;6.692;2023-04-05T06:41:36;102111.72;;;5.37;52.12
9110;BME280;4590;51.462;6.692;2023-04-05T06:44:01;102109.94;;;5.43;51.95
9110;BME280;4590;51.462;6.692;2023-04-05T06:46:34;102111.72;;;5.49;51.79
9110;BME280;4590;51.462;6.692;2023-04-05T06:49:00;102114.53;;;5.54;52.33
9110;BME280;4590;51.462;6.692;2023-04-05T06:51:25;102108.72;;;5.62;52.38
9110;BME280;4590;51.462;6.692;2023-04-05T06:53:54;102098.25;;;5.82;51.58
9110;BME280;4590;51.462;6.692;2023-04-05T06:56:19;102102.72;;;6.00;51.75
9110;BME280;4590;51.462;6.692;2023-04-05T06:58:46;102101.50;;;6.08;51.67
9110;BME280;4590;51.462;6.692;2023-04-05T07:01:11;102105.41;;;6.40;51.59
9110;BME280;4590;51.462;6.692;2023-04-05T07:03:36;102099.31;;;6.66;51.11
9110;BME280;4590;51.462;6.692;2023-04-05T07:06:02;102094.69;;;6.84;50.85
9110;BME280;4590;51.462;6.692;2023-04-05T07:08:31;102097.66;;;7.16;49.96
9110;BME280;4590;51.462;6.692;2023-04-05T07:10:57;102091.28;;;7.49;49.81
9110;BME280;4590;51.462;6.692;2023-04-05T07:13:23;102095.25;;;7.80;48.75
9110;BME280;4590;51.462;6.692;2023-04-05T07:15:49;102091.16;;;8.04;47.54
9110;BME280;4590;51.462;6.692;2023-04-05T07:18:15;102079.91;;;8.27;46.95
9110;BME280;4590;51.462;6.692;2023-04-05T07:20:41;102076.59;;;8.47;45.76
9110;BME280;4590;51.462;6.692;2023-04-05T07:23:08;102081.00;;;8.80;45.75
9110;BME280;4590;51.462;6.692;2023-04-05T07:25:33;102074.88;;;9.05;44.90
9110;BME280;4590;51.462;6.692;2023-04-05T07:27:59;102069.84;;;9.34;44.81
9110;BME280;4590;51.462;6.692;2023-04-05T07:30:29;102079.59;;;9.57;44.08
9110;BME280;4590;51.462;6.692;2023-04-05T07:32:55;102076.09;;;9.71;43.92
9110;BME280;4590;51.462;6.692;2023-04-05T07:35:22;102073.38;;;9.81;43.06
9110;BME280;4590;51.462;6.692;2023-04-05T07:37:48;102076.22;;;10.07;42.83
9110;BME280;4590;51.462;6.692;2023-04-05T07:40:13;102077.13;;;10.23;42.61
9110;BME280;4590;51.462;6.692;2023-04-05T07:42:38;102069.16;;;10.31;41.98
9110;BME280;4590;51.462;6.692;2023-04-05T07:45:04;102070.00;;;10.42;42.01
9110;BME280;4590;51.462;6.692;2023-04-05T07:47:32;102077.72;;;10.60;42.23
9110;BME280;4590;51.462;6.692;2023-04-05T07:49:58;102077.19;;;10.78;41.58
9110;BME280;4590;51.462;6.692;2023-04-05T07:52:23;102069.47;;;10.96;40.98
9110;BME280;4590;51.462;6.692;2023-04-05T07:54:49;102075.50;;;11.13;40.04
9110;BME280;4590;51.462;6.692;2023-04-05T07:57:17;102077.38;;;11.38;39.12
9110;BME280;4590;51.462;6.692;2023-04-05T07:59:43;102067.13;;;11.64;39.00
9110;BME280;4590;51.462;6.692;2023-04-05T08:02:09;102078.34;;;11.92;38.73
9110;BME280;4590;51.462;6.692;2023-04-05T08:04:34;102077.09;;;12.19;38.37
9110;BME280;4590;51.462;6.692;2023-04-05T08:07:00;102074.75;;;12.41;38.16
9110;BME280;4590;51.462;6.692;2023-04-05T08:09:25;102076.50;;;12.66;37.41
9110;BME280;4590;51.462;6.692;2023-04-05T08:11:50;102081.03;;;12.86;37.14
9110;BME280;4590;51.462;6.692;2023-04-05T08:14:15;102070.09;;;13.05;36.54
9110;BME280;4590;51.462;6.692;2023-04-05T08:16:42;102075.16;;;13.26;36.54
9110;BME280;4590;51.462;6.692;2023-04-05T08:19:07;102071.56;;;13.26;31.94
9110;BME280;4590;51.462;6.692;2023-04-05T08:21:32;102072.00;;;13.62;36.38
9110;BME280;4590;51.462;6.692;2023-04-05T08:23:58;102070.66;;;13.83;36.07
9110;BME280;4590;51.462;6.692;2023-04-05T08:26:24;102078.06;;;14.07;35.32
9110;BME280;4590;51.462;6.692;2023-04-05T08:28:49;102073.38;;;14.26;35.03
9110;BME280;4590;51.462;6.692;2023-04-05T08:31:18;102065.13;;;14.45;34.82
9110;BME280;4590;51.462;6.692;2023-04-05T08:33:45;102065.41;;;14.62;34.11
9110;BME280;4590;51.462;6.692;2023-04-05T08:36:10;102064.19;;;14.68;33.61
9110;BME280;4590;51.462;6.692;2023-04-05T08:38:35;102071.94;;;14.85;32.94
9110;BME280;4590;51.462;6.692;2023-04-05T08:43:55;102062.69;;;15.08;30.20
9110;BME280;4590;51.462;6.692;2023-04-05T08:46:24;102066.16;;;15.14;32.10
9110;BME280;4590;51.462;6.692;2023-04-05T08:48:49;102072.34;;;15.11;32.48
9110;BME280;4590;51.462;6.692;2023-04-05T08:51:20;102066.16;;;15.14;32.29
9110;BME280;4590;51.462;6.692;2023-04-05T08:53:46;102060.97;;;15.26;32.27
9110;BME280;4590;51.462;6.692;2023-04-05T08:56:14;102065.06;;;15.28;31.58
9110;BME280;4590;51.462;6.692;2023-04-05T08:58:44;102060.34;;;15.29;30.83
9110;BME280;4590;51.462;6.692;2023-04-05T09:01:13;102059.41;;;15.33;31.36
9110;BME280;4590;51.462;6.692;2023-04-05T09:03:41;102057.25;;;15.44;30.42
9110;BME280;4590;51.462;6.692;2023-04-05T09:06:07;102055.91;;;15.28;30.93
9110;BME280;4590;51.462;6.692;2023-04-05T09:08:34;102059.38;;;15.06;29.66
9110;BME280;4590;51.462;6.692;2023-04-05T09:10:59;102055.00;;;15.19;30.63
9110;BME280;4590;51.462;6.692;2023-04-05T09:13:25;102050.19;;;15.24;30.69
9110;BME280;4590;51.462;6.692;2023-04-05T09:15:50;102056.03;;;15.23;30.36
9110;BME280;4590;51.462;6.692;2023-04-05T09:18:16;102049.75;;;15.44;30.13
9110;BME280;4590;51.462;6.692;2023-04-05T09:20:41;102051.66;;;15.63;30.04
9110;BME280;4590;51.462;6.692;2023-04-05T09:23:07;102047.66;;;15.69;29.98
9110;BME280;4590;51.462;6.692;2023-04-05T09:25:39;102044.44;;;15.75;29.54
9110;BME280;4590;51.462;6.692;2023-04-05T09:28:09;102046.91;;;15.91;30.21
9110;BME280;4590;51.462;6.692;2023-04-05T09:30:35;102041.53;;;16.08;30.22
9110;BME280;4590;51.462;6.692;2023-04-05T09:33:02;102046.34;;;16.16;30.11
9110;BME280;4590;51.462;6.692;2023-04-05T09:35:31;102047.03;;;16.22;29.93
9110;BME280;4590;51.462;6.692;2023-04-05T09:37:58;102042.09;;;16.32;30.01
9110;BME280;4590;51.462;6.692;2023-04-05T09:40:45;102046.19;;;16.35;28.13
9110;BME280;4590;51.462;6.692;2023-04-05T09:43:12;102046.25;;;16.43;29.75
9110;BME280;4590;51.462;6.692;2023-04-05T09:45:39;102041.09;;;16.51;29.62
9110;BME280;4590;51.462;6.692;2023-04-05T09:48:08;102041.47;;;16.58;29.59
9110;BME280;4590;51.462;6.692;2023-04-05T09:50:33;102044.38;;;16.53;29.14
9110;BME280;4590;51.462;6.692;2023-04-05T09:53:10;102040.38;;;16.45;28.40
9110;BME280;4590;51.462;6.692;2023-04-05T09:55:40;102038.31;;;16.51;29.19
9110;BME280;4590;51.462;6.692;2023-04-05T09:58:11;102043.63;;;16.61;28.90
9110;BME280;4590;51.462;6.692;2023-04-05T10:00:37;102039.88;;;16.79;29.09
9110;BME280;4590;51.462;6.692;2023-04-05T10:03:03;102032.25;;;16.93;28.52
9110;BME280;4590;51.462;6.692;2023-04-05T10:05:28;102049.19;;;17.05;28.31
9110;BME280;4590;51.462;6.692;2023-04-05T10:07:55;102039.41;;;17.16;28.45
9110;BME280;4590;51.462;6.692;2023-04-05T10:10:21;102029.09;;;17.17;29.06
9110;BME280;4590;51.462;6.692;2023-04-05T10:12:48;102024.38;;;17.17;29.22
9110;BME280;4590;51.462;6.692;2023-04-05T10:15:14;102022.88;;;17.11;29.44
9110;BME280;4590;51.462;6.692;2023-04-05T10:17:48;102030.22;;;17.07;29.06
9110;BME280;4590;51.462;6.692;2023-04-05T10:20:23;102028.84;;;16.96;29.71
9110;BME280;4590;51.462;6.692;2023-04-05T10:27:53;102020.53;;;16.74;29.09
9110;BME280;4590;51.462;6.692;2023-04-05T10:30:23;102012.38;;;16.77;30.26
9110;BME280;4590;51.462;6.692;2023-04-05T10:36:34;102012.72;;;16.84;27.69
9110;BME280;4590;51.462;6.692;2023-04-05T10:39:07;102004.28;;;16.90;25.00
9110;BME280;4590;51.462;6.692;2023-04-05T10:41:41;102018.41;;;17.02;26.66
9110;BME280;4590;51.462;6.692;2023-04-05T10:44:08;102006.97;;;17.03;27.19
9110;BME280;4590;51.462;6.692;2023-04-05T10:46:39;101997.13;;;16.97;27.24
9110;BME280;4590;51.462;6.692;2023-04-05T10:49:24;101998.09;;;16.93;26.33
9110;BME280;4590;51.462;6.692;2023-04-05T10:51:53;102001.69;;;16.93;26.95
9110;BME280;4590;51.462;6.692;2023-04-05T10:54:20;102009.00;;;16.89;27.35
9110;BME280;4590;51.462;6.692;2023-04-05T10:56:46;101996.22;;;16.79;27.06
9110;BME280;4590;51.462;6.692;2023-04-05T10:59:12;101995.50;;;16.74;26.98
9110;BME280;4590;51.462;6.692;2023-04-05T11:01:39;101988.31;;;16.51;26.46
9110;BME280;4590;51.462;6.692;2023-04-05T11:04:10;101984.91;;;16.31;26.66
9110;BME280;4590;51.462;6.692;2023-04-05T11:06:36;101984.44;;;16.16;26.78
9110;BME280;4590;51.462;6.692;2023-04-05T11:09:13;101988.75;;;15.86;26.64
9110;BME280;4590;51.462;6.692;2023-04-05T11:11:46;101989.69;;;15.67;27.07
9110;BME280;4590;51.462;6.692;2023-04-05T11:14:26;101983.94;;;15.36;25.88
9110;BME280;4590;51.462;6.692;2023-04-05T11:16:59;101977.56;;;15.50;27.04
9110;BME280;4590;51.462;6.692;2023-04-05T11:19:49;101981.16;;;15.36;26.33
9110;BME280;4590;51.462;6.692;2023-04-05T11:22:27;101978.47;;;15.45;27.19
9110;BME280;4590;51.462;6.692;2023-04-05T11:25:00;101982.59;;;15.61;27.44
9110;BME280;4590;51.462;6.692;2023-04-05T11:27:29;101976.94;;;15.80;27.55
9110;BME280;4590;51.462;6.692;2023-04-05T11:29:56;101972.34;;;15.98;27.38
9110;BME280;4590;51.462;6.692;2023-04-05T11:32:22;101959.75;;;16.14;27.22
9110;BME280;4590;51.462;6.692;2023-04-05T11:34:57;101964.09;;;16.06;26.80
9110;BME280;4590;51.462;6.692;2023-04-05T11:40:29;101968.38;;;15.76;27.42
9110;BME280;4590;51.462;6.692;2023-04-05T11:43:03;101965.13;;;15.61;27.29
9110;BME280;4590;51.462;6.692;2023-04-05T11:45:30;101968.63;;;15.53;28.01
9110;BME280;4590;51.462;6.692;2023-04-05T11:47:58;101957.84;;;15.51;27.75
9110;BME280;4590;51.462;6.692;2023-04-05T11:50:24;101954.34;;;15.45;27.75
9110;BME280;4590;51.462;6.692;2023-04-05T11:56:11;101953.00;;;15.16;28.08
9110;BME280;4590;51.462;6.692;2023-04-05T11:58:39;101947.59;;;15.11;28.31
9110;BME280;4590;51.462;6.692;2023-04-05T12:01:06;101951.50;;;15.09;28.02
9110;BME280;4590;51.462;6.692;2023-04-05T12:03:32;101955.38;;;15.08;28.26
9110;BME280;4590;51.462;6.692;2023-04-05T12:06:00;101955.56;;;15.12;27.89
9110;BME280;4590;51.462;6.692;2023-04-05T12:08:44;101937.72;;;15.04;27.01
9110;BME280;4590;51.462;6.692;2023-04-05T12:11:29;101926.72;;;15.13;27.92
9110;BME280;4590;51.462;6.692;2023-04-05T12:13:57;101928.50;;;15.09;27.75
9110;BME280;4590;51.462;6.692;2023-04-05T12:16:23;101933.31;;;15.03;28.05
9110;BME280;4590;51.462;6.692;2023-04-05T12:18:56;101929.41;;;14.91;27.82
9110;BME280;4590;51.462;6.692;2023-04-05T12:21:22;101925.50;;;14.92;28.08
9110;BME280;4590;51.462;6.692;2023-04-05T12:24:07;101916.16;;;14.74;27.71
9110;BME280;4590;51.462;6.692;2023-04-05T12:38:07;101919.59;;;14.52;27.92
9110;BME280;4590;51.462;6.692;2023-04-05T12:41:13;101916.28;;;14.50;28.46
9110;BME280;4590;51.462;6.692;2023-04-05T12:47:01;101901.72;;;14.45;28.02
9110;BME280;4590;51.462;6.692;2023-04-05T12:49:36;101899.25;;;14.43;27.83
9110;BME280;4590;51.462;6.692;2023-04-05T12:52:01;101886.25;;;14.25;27.83
9110;BME280;4590;51.462;6.692;2023-04-05T12:54:27;101887.47;;;14.19;27.80
9110;BME280;4590;51.462;6.692;2023-04-05T12:56:53;101886.81;;;14.08;27.51
9110;BME280;4590;51.462;6.692;2023-04-05T12:59:22;101887.13;;;14.07;27.29
9110;BME280;4590;51.462;6.692;2023-04-05T13:01:48;101879.00;;;13.96;27.41
9110;BME280;4590;51.462;6.692;2023-04-05T13:04:13;101887.25;;;13.83;27.59
9110;BME280;4590;51.462;6.692;2023-04-05T13:06:38;101875.19;;;13.74;27.85
9110;BME280;4590;51.462;6.692;2023-04-05T13:09:03;101878.66;;;13.65;28.22
9110;BME280;4590;51.462;6.692;2023-04-05T13:11:29;101869.53;;;13.65;28.21
9110;BME280;4590;51.462;6.692;2023-04-05T13:13:54;101868.94;;;13.68;28.12
9110;BME280;4590;51.462;6.692;2023-04-05T13:16:19;101871.91;;;13.72;28.45
9110;BME280;4590;51.462;6.692;2023-04-05T13:18:45;101866.91;;;13.74;28.31
9110;BME280;4590;51.462;6.692;2023-04-05T13:21:10;101863.41;;;13.68;28.34
9110;BME280;4590;51.462;6.692;2023-04-05T13:23:38;101870.94;;;13.62;28.25
9110;BME280;4590;51.462;6.692;2023-04-05T13:26:04;101857.13;;;13.62;28.63
9110;BME280;4590;51.462;6.692;2023-04-05T13:28:29;101850.41;;;13.50;28.29
9110;BME280;4590;51.462;6.692;2023-04-05T13:30:55;101855.16;;;13.63;28.50
9110;BME280;4590;51.462;6.692;2023-04-05T13:33:20;101849.94;;;13.61;28.31
9110;BME280;4590;51.462;6.692;2023-04-05T13:35:46;101859.94;;;13.57;28.51
9110;BME280;4590;51.462;6.692;2023-04-05T13:38:11;101844.78;;;13.55;28.49
9110;BME280;4590;51.462;6.692;2023-04-05T13:40:37;101851.88;;;13.61;28.32
9110;BME280;4590;51.462;6.692;2023-04-05T13:43:02;101834.75;;;13.59;28.30
9110;BME280;4590;51.462;6.692;2023-04-05T13:45:28;101846.41;;;13.56;28.53
9110;BME280;4590;51.462;6.692;2023-04-05T13:47:53;101833.72;;;13.55;28.38
9110;BME280;4590;51.462;6.692;2023-04-05T13:50:19;101839.25;;;13.55;28.05
9110;BME280;4590;51.462;6.692;2023-04-05T13:52:44;101831.63;;;13.47;27.58
9110;BME280;4590;51.462;6.692;2023-04-05T13:55:09;101827.69;;;13.34;27.63
9110;BME280;4590;51.462;6.692;2023-04-05T13:57:35;101824.75;;;13.25;27.67
9110;BME280;4590;51.462;6.692;2023-04-05T14:00:00;101823.78;;;13.16;27.68
9110;BME280;4590;51.462;6.692;2023-04-05T14:02:25;101820.75;;;13.13;27.59